sensor_id;sensor_type;location;lat;lon;timestamp;temperature;humidity
35258;DHT22;21385;50.878;8.050;2022-12-18T00:01:05;-6.90;99.90
35258;DHT22;21385;50.878;8.050;2022-12-18T00:03:38;-6.90;99.90
35258;DHT22;21385;50.878;8.050;2022-12-18T00:06:04;-6.80;99.90
35258;DHT22;21385;50.878;8.050;2022-12-18T00:08:29;-6.70;99.90
35258;DHT22;21385;50.878;8.050;2022-12-18T00:10:55;-6.70;99.90
35258;DHT22;21385;50.878;8.050;2022-12-18T00:13:20;-6.70;99.90
35258;DHT22;21385;50.878;8.050;2022-12-18T00:15:46;-6.80;99.90
35258;DHT22;21385;50.878;8.050;2022-12-18T00:18:12;-6.80;99.90
35258;DHT22;21385;50.878;8.050;2022-12-18T00:20:38;-6.80;99.90
35258;DHT22;21385;50.878;8.050;2022-12-18T00:23:05;-6.90;99.90
35258;DHT22;21385;50.878;8.050;2022-12-18T00:25:33;-6.90;99.90
35258;DHT22;21385;50.878;8.050;2022-12-18T00:28:00;-6.90;99.90
35258;DHT22;21385;50.878;8.050;2022-12-18T00:30:25;-6.80;99.90
35258;DHT22;21385;50.878;8.050;2022-12-18T00:32:51;-6.80;99.90
35258;DHT22;21385;50.878;8.050;2022-12-18T00:35:16;-6.90;99.90
35258;DHT22;21385;50.878;8.050;2022-12-18T00:37:42;-6.90;99.90
35258;DHT22;21385;50.878;8.050;2022-12-18T00:40:08;-6.90;99.90
35258;DHT22;21385;50.878;8.050;2022-12-18T00:42:34;-7.00;99.90
35258;DHT22;21385;50.878;8.050;2022-12-18T00:45:18;-7.00;99.90
35258;DHT22;21385;50.878;8.050;2022-12-18T00:47:44;-7.00;99.90
35258;DHT22;21385;50.878;8.050;2022-12-18T00:50:10;-7.00;99.90
35258;DHT22;21385;50.878;8.050;2022-12-18T00:52:35;-7.10;99.90
35258;DHT22;21385;50.878;8.050;2022-12-18T00:55:01;-7.00;99.90
35258;DHT22;21385;50.878;8.050;2022-12-18T00:57:26;-7.10;99.90
35258;DHT22;21385;50.878;8.050;2022-12-18T00:59:52;-7.10;99.90
35258;DHT22;21385;50.878;8.050;2022-12-18T01:02:17;-7.10;99.90
35258;DHT22;21385;50.878;8.050;2022-12-18T01:04:43;-7.10;99.90
35258;DHT22;21385;50.878;8.050;2022-12-18T01:07:08;-7.10;99.90
35258;DHT22;21385;50.878;8.050;2022-12-18T01:09:34;-7.10;99.90
35258;DHT22;21385;50.878;8.050;2022-12-18T01:12:00;-7.10;99.90
35258;DHT22;21385;50.878;8.050;2022-12-18T01:14:25;-7.10;99.90
35258;DHT22;21385;50.878;8.050;2022-12-18T01:16:51;-7.10;99.90
35258;DHT22;21385;50.878;8.050;2022-12-18T01:19:17;-7.20;99.90
35258;DHT22;21385;50.878;8.050;2022-12-18T01:21:42;-7.20;99.90
35258;DHT22;21385;50.878;8.050;2022-12-18T01:24:11;-7.20;99.90
35258;DHT22;21385;50.878;8.050;2022-12-18T01:26:37;-7.20;99.90
35258;DHT22;21385;50.878;8.050;2022-12-18T01:29:03;-7.20;99.90
35258;DHT22;21385;50.878;8.050;2022-12-18T01:31:32;-7.20;99.90
35258;DHT22;21385;50.878;8.050;2022-12-18T01:34:00;-7.30;99.90
35258;DHT22;21385;50.878;8.050;2022-12-18T01:36:29;-7.30;99.90
35258;DHT22;21385;50.878;8.050;2022-12-18T01:38:56;-7.30;99.90
35258;DHT22;21385;50.878;8.050;2022-12-18T01:41:25;-7.40;99.90
35258;DHT22;21385;50.878;8.050;2022-12-18T01:43:56;-7.40;99.90
35258;DHT22;21385;50.878;8.050;2022-12-18T01:46:26;-7.50;99.90
35258;DHT22;21385;50.878;8.050;2022-12-18T01:48:56;-7.50;99.90
35258;DHT22;21385;50.878;8.050;2022-12-18T01:51:23;-7.50;99.90
35258;DHT22;21385;50.878;8.050;2022-12-18T01:53:49;-7.60;99.90
35258;DHT22;21385;50.878;8.050;2022-12-18T01:56:16;-7.60;99.90
35258;DHT22;21385;50.878;8.050;2022-12-18T01:58:56;-7.60;99.90
35258;DHT22;21385;50.878;8.050;2022-12-18T02:01:24;-7.60;99.90
35258;DHT22;21385;50.878;8.050;2022-12-18T02:03:50;-7.50;99.90
35258;DHT22;21385;50.878;8.050;2022-12-18T02:06:39;-7.60;99.90
35258;DHT22;21385;50.878;8.050;2022-12-18T02:09:16;-7.60;99.90
35258;DHT22;21385;50.878;8.050;2022-12-18T02:14:38;-7.60;99.90
35258;DHT22;21385;50.878;8.050;2022-12-18T02:22:36;-7.60;99.90
35258;DHT22;21385;50.878;8.050;2022-12-18T02:25:17;-7.60;99.90
35258;DHT22;21385;50.878;8.050;2022-12-18T02:27:49;-7.70;99.90
35258;DHT22;21385;50.878;8.050;2022-12-18T02:30:16;-7.60;99.90
35258;DHT22;21385;50.878;8.050;2022-12-18T02:32:49;-7.60;99.90
35258;DHT22;21385;50.878;8.050;2022-12-18T02:35:21;-7.60;99.90
35258;DHT22;21385;50.878;8.050;2022-12-18T02:37:48;-7.70;99.90
35258;DHT22;21385;50.878;8.050;2022-12-18T02:40:15;-7.70;99.90
35258;DHT22;21385;50.878;8.050;2022-12-18T02:42:42;-7.70;99.90
35258;DHT22;21385;50.878;8.050;2022-12-18T02:45:08;-7.70;99.90
35258;DHT22;21385;50.878;8.050;2022-12-18T02:47:37;-7.70;99.90
35258;DHT22;21385;50.878;8.050;2022-12-18T02:51:08;-7.80;99.90
35258;DHT22;21385;50.878;8.050;2022-12-18T02:53:26;-7.80;99.90
35258;DHT22;21385;50.878;8.050;2022-12-18T02:55:58;-7.80;99.90
35258;DHT22;21385;50.878;8.050;2022-12-18T03:03:51;-7.80;99.90
35258;DHT22;21385;50.878;8.050;2022-12-18T03:06:59;-7.80;99.90
35258;DHT22;21385;50.878;8.050;2022-12-18T03:09:21;-7.80;99.90
35258;DHT22;21385;50.878;8.050;2022-12-18T03:11:58;-7.80;99.90
35258;DHT22;21385;50.878;8.050;2022-12-18T03:14:47;-7.80;99.90
35258;DHT22;21385;50.878;8.050;2022-12-18T03:17:19;-7.80;99.90
35258;DHT22;21385;50.878;8.050;2022-12-18T03:19:49;-7.80;99.90
35258;DHT22;21385;50.878;8.050;2022-12-18T03:22:15;-7.90;99.90
35258;DHT22;21385;50.878;8.050;2022-12-18T03:24:41;-7.90;99.90
35258;DHT22;21385;50.878;8.050;2022-12-18T03:27:12;-7.90;99.90
35258;DHT22;21385;50.878;8.050;2022-12-18T03:29:44;-7.90;99.90
35258;DHT22;21385;50.878;8.050;2022-12-18T03:32:24;-7.90;99.90
35258;DHT22;21385;50.878;8.050;2022-12-18T03:34:52;-7.90;99.90
35258;DHT22;21385;50.878;8.050;2022-12-18T03:37:19;-7.90;99.90
35258;DHT22;21385;50.878;8.050;2022-12-18T03:39:44;-7.80;99.90
35258;DHT22;21385;50.878;8.050;2022-12-18T03:45:02;-7.90;99.90
35258;DHT22;21385;50.878;8.050;2022-12-18T03:53:08;-8.00;99.90
35258;DHT22;21385;50.878;8.050;2022-12-18T03:55:35;-8.00;99.90
35258;DHT22;21385;50.878;8.050;2022-12-18T03:58:03;-8.00;99.90
35258;DHT22;21385;50.878;8.050;2022-12-18T04:00:30;-8.00;99.90
35258;DHT22;21385;50.878;8.050;2022-12-18T04:02:59;-8.00;99.90
35258;DHT22;21385;50.878;8.050;2022-12-18T04:05:27;-8.00;99.90
35258;DHT22;21385;50.878;8.050;2022-12-18T04:07:55;-7.90;99.90
35258;DHT22;21385;50.878;8.050;2022-12-18T04:10:21;-7.80;99.90
35258;DHT22;21385;50.878;8.050;2022-12-18T04:12:47;-7.70;99.90
35258;DHT22;21385;50.878;8.050;2022-12-18T04:15:13;-7.70;99.90
35258;DHT22;21385;50.878;8.050;2022-12-18T04:17:43;-7.60;99.90
35258;DHT22;21385;50.878;8.050;2022-12-18T04:20:11;-7.50;99.90
35258;DHT22;21385;50.878;8.050;2022-12-18T04:22:37;-7.40;99.90
35258;DHT22;21385;50.878;8.050;2022-12-18T04:25:03;-7.40;99.90
35258;DHT22;21385;50.878;8.050;2022-12-18T04:27:28;-7.40;99.90
35258;DHT22;21385;50.878;8.050;2022-12-18T04:29:54;-7.40;99.90
35258;DHT22;21385;50.878;8.050;2022-12-18T04:32:20;-7.30;99.90
35258;DHT22;21385;50.878;8.050;2022-12-18T04:34:45;-7.20;99.90
35258;DHT22;21385;50.878;8.050;2022-12-18T04:37:11;-7.20;99.90
35258;DHT22;21385;50.878;8.050;2022-12-18T04:39:36;-7.10;99.90
35258;DHT22;21385;50.878;8.050;2022-12-18T04:42:02;-7.20;99.90
35258;DHT22;21385;50.878;8.050;2022-12-18T04:44:28;-7.20;99.90
35258;DHT22;21385;50.878;8.050;2022-12-18T04:46:53;-7.20;99.90
35258;DHT22;21385;50.878;8.050;2022-12-18T04:49:19;-7.10;99.90
35258;DHT22;21385;50.878;8.050;2022-12-18T04:51:44;-7.10;99.90
35258;DHT22;21385;50.878;8.050;2022-12-18T04:54:10;-7.00;99.90
35258;DHT22;21385;50.878;8.050;2022-12-18T04:56:36;-6.90;99.90
35258;DHT22;21385;50.878;8.050;2022-12-18T04:59:01;-6.90;99.90
35258;DHT22;21385;50.878;8.050;2022-12-18T05:01:27;-6.80;99.90
35258;DHT22;21385;50.878;8.050;2022-12-18T05:03:52;-6.80;99.90
35258;DHT22;21385;50.878;8.050;2022-12-18T05:06:18;-6.70;99.90
35258;DHT22;21385;50.878;8.050;2022-12-18T05:08:43;-6.70;99.90
35258;DHT22;21385;50.878;8.050;2022-12-18T05:11:11;-6.60;99.90
35258;DHT22;21385;50.878;8.050;2022-12-18T05:13:39;-6.50;99.90
35258;DHT22;21385;50.878;8.050;2022-12-18T05:16:05;-6.30;99.90
35258;DHT22;21385;50.878;8.050;2022-12-18T05:18:31;-6.30;99.90
35258;DHT22;21385;50.878;8.050;2022-12-18T05:20:57;-6.20;99.90
35258;DHT22;21385;50.878;8.050;2022-12-18T05:23:23;-6.10;99.90
35258;DHT22;21385;50.878;8.050;2022-12-18T05:25:54;-6.00;99.90
35258;DHT22;21385;50.878;8.050;2022-12-18T05:28:20;-5.90;99.90
35258;DHT22;21385;50.878;8.050;2022-12-18T05:30:50;-5.90;99.90
35258;DHT22;21385;50.878;8.050;2022-12-18T05:33:16;-5.80;99.90
35258;DHT22;21385;50.878;8.050;2022-12-18T05:35:42;-5.70;99.90
35258;DHT22;21385;50.878;8.050;2022-12-18T05:38:07;-5.70;99.90
35258;DHT22;21385;50.878;8.050;2022-12-18T05:40:33;-5.60;99.90
35258;DHT22;21385;50.878;8.050;2022-12-18T05:42:59;-5.50;99.90
35258;DHT22;21385;50.878;8.050;2022-12-18T05:45:24;-5.50;99.90
35258;DHT22;21385;50.878;8.050;2022-12-18T05:47:50;-5.40;99.90
35258;DHT22;21385;50.878;8.050;2022-12-18T05:50:15;-5.30;99.90
35258;DHT22;21385;50.878;8.050;2022-12-18T05:52:41;-5.20;99.90
35258;DHT22;21385;50.878;8.050;2022-12-18T05:55:07;-5.10;99.90
35258;DHT22;21385;50.878;8.050;2022-12-18T05:57:32;-5.00;99.90
35258;DHT22;21385;50.878;8.050;2022-12-18T05:59:58;-4.90;99.90
35258;DHT22;21385;50.878;8.050;2022-12-18T06:02:23;-4.80;99.90
35258;DHT22;21385;50.878;8.050;2022-12-18T06:04:49;-4.70;99.90
35258;DHT22;21385;50.878;8.050;2022-12-18T06:07:14;-4.70;99.90
35258;DHT22;21385;50.878;8.050;2022-12-18T06:09:40;-4.60;99.90
35258;DHT22;21385;50.878;8.050;2022-12-18T06:12:06;-4.60;99.90
35258;DHT22;21385;50.878;8.050;2022-12-18T06:14:32;-4.60;99.90
35258;DHT22;21385;50.878;8.050;2022-12-18T06:16:57;-4.50;99.90
35258;DHT22;21385;50.878;8.050;2022-12-18T06:19:23;-4.50;99.90
35258;DHT22;21385;50.878;8.050;2022-12-18T06:21:48;-4.50;99.90
35258;DHT22;21385;50.878;8.050;2022-12-18T06:24:14;-4.40;99.90
35258;DHT22;21385;50.878;8.050;2022-12-18T06:26:40;-4.40;99.90
35258;DHT22;21385;50.878;8.050;2022-12-18T06:29:06;-4.30;99.90
35258;DHT22;21385;50.878;8.050;2022-12-18T06:31:32;-4.30;99.90
35258;DHT22;21385;50.878;8.050;2022-12-18T06:33:58;-4.20;99.90
35258;DHT22;21385;50.878;8.050;2022-12-18T06:36:23;-4.20;99.90
35258;DHT22;21385;50.878;8.050;2022-12-18T06:38:49;-4.10;99.90
35258;DHT22;21385;50.878;8.050;2022-12-18T06:41:17;-4.10;99.90
35258;DHT22;21385;50.878;8.050;2022-12-18T06:43:47;-4.10;99.90
35258;DHT22;21385;50.878;8.050;2022-12-18T06:46:13;-4.10;99.90
35258;DHT22;21385;50.878;8.050;2022-12-18T06:48:38;-4.10;99.90
35258;DHT22;21385;50.878;8.050;2022-12-18T06:51:04;-4.00;99.90
35258;DHT22;21385;50.878;8.050;2022-12-18T06:53:31;-4.00;99.90
35258;DHT22;21385;50.878;8.050;2022-12-18T06:56:05;-4.00;99.90
35258;DHT22;21385;50.878;8.050;2022-12-18T06:58:30;-4.00;99.90
35258;DHT22;21385;50.878;8.050;2022-12-18T07:01:03;-4.00;99.90
35258;DHT22;21385;50.878;8.050;2022-12-18T07:03:29;-3.90;99.90
35258;DHT22;21385;50.878;8.050;2022-12-18T07:05:55;-3.90;99.90
35258;DHT22;21385;50.878;8.050;2022-12-18T07:08:21;-3.80;99.90
35258;DHT22;21385;50.878;8.050;2022-12-18T07:10:47;-3.90;99.90
35258;DHT22;21385;50.878;8.050;2022-12-18T07:13:17;-3.80;99.90
35258;DHT22;21385;50.878;8.050;2022-12-18T07:15:43;-3.80;99.90
35258;DHT22;21385;50.878;8.050;2022-12-18T07:18:09;-3.70;99.90
35258;DHT22;21385;50.878;8.050;2022-12-18T07:20:35;-3.70;99.90
35258;DHT22;21385;50.878;8.050;2022-12-18T07:23:05;-3.70;99.90
35258;DHT22;21385;50.878;8.050;2022-12-18T07:25:37;-3.60;99.90
35258;DHT22;21385;50.878;8.050;2022-12-18T07:28:04;-3.60;99.90
35258;DHT22;21385;50.878;8.050;2022-12-18T07:30:29;-3.70;99.90
35258;DHT22;21385;50.878;8.050;2022-12-18T07:32:55;-3.60;99.90
35258;DHT22;21385;50.878;8.050;2022-12-18T07:35:21;-3.50;99.90
35258;DHT22;21385;50.878;8.050;2022-12-18T07:37:46;-3.50;99.90
35258;DHT22;21385;50.878;8.050;2022-12-18T07:40:12;-3.50;99.90
35258;DHT22;21385;50.878;8.050;2022-12-18T07:42:37;-3.50;99.90
35258;DHT22;21385;50.878;8.050;2022-12-18T07:45:04;-3.40;99.90
35258;DHT22;21385;50.878;8.050;2022-12-18T07:47:36;-3.40;99.90
35258;DHT22;21385;50.878;8.050;2022-12-18T07:50:03;-3.40;99.90
35258;DHT22;21385;50.878;8.050;2022-12-18T07:52:29;-3.40;99.90
35258;DHT22;21385;50.878;8.050;2022-12-18T07:54:54;-3.40;99.90
35258;DHT22;21385;50.878;8.050;2022-12-18T07:57:20;-3.40;99.90
35258;DHT22;21385;50.878;8.050;2022-12-18T07:59:46;-3.30;99.90
35258;DHT22;21385;50.878;8.050;2022-12-18T08:02:12;-3.30;99.90
35258;DHT22;21385;50.878;8.050;2022-12-18T08:04:37;-3.30;99.90
35258;DHT22;21385;50.878;8.050;2022-12-18T08:07:03;-3.30;99.90
35258;DHT22;21385;50.878;8.050;2022-12-18T08:09:28;-3.20;99.90
35258;DHT22;21385;50.878;8.050;2022-12-18T08:11:54;-3.20;99.90
35258;DHT22;21385;50.878;8.050;2022-12-18T08:14:19;-3.10;99.90
35258;DHT22;21385;50.878;8.050;2022-12-18T08:16:45;-3.10;99.90
35258;DHT22;21385;50.878;8.050;2022-12-18T08:19:10;-3.00;99.90
35258;DHT22;21385;50.878;8.050;2022-12-18T08:21:37;-2.90;99.90
35258;DHT22;21385;50.878;8.050;2022-12-18T08:24:03;-2.80;99.90
35258;DHT22;21385;50.878;8.050;2022-12-18T08:26:30;-2.80;99.90
35258;DHT22;21385;50.878;8.050;2022-12-18T08:28:58;-2.70;99.90
35258;DHT22;21385;50.878;8.050;2022-12-18T08:31:25;-2.70;99.90
35258;DHT22;21385;50.878;8.050;2022-12-18T08:33:52;-2.60;99.90
35258;DHT22;21385;50.878;8.050;2022-12-18T08:36:18;-2.60;99.90
35258;DHT22;21385;50.878;8.050;2022-12-18T08:38:45;-2.60;99.90
35258;DHT22;21385;50.878;8.050;2022-12-18T08:41:12;-2.50;99.90
35258;DHT22;21385;50.878;8.050;2022-12-18T08:43:39;-2.50;99.90
35258;DHT22;21385;50.878;8.050;2022-12-18T08:46:25;-2.50;99.90
35258;DHT22;21385;50.878;8.050;2022-12-18T08:48:52;-2.30;99.90
35258;DHT22;21385;50.878;8.050;2022-12-18T08:51:18;-2.30;99.90
35258;DHT22;21385;50.878;8.050;2022-12-18T08:53:45;-2.20;99.90
35258;DHT22;21385;50.878;8.050;2022-12-18T08:56:11;-2.10;99.90
35258;DHT22;21385;50.878;8.050;2022-12-18T08:58:37;-2.00;99.90
35258;DHT22;21385;50.878;8.050;2022-12-18T09:01:04;-2.00;99.90
35258;DHT22;21385;50.878;8.050;2022-12-18T09:03:30;-1.90;99.90
35258;DHT22;21385;50.878;8.050;2022-12-18T09:05:56;-1.70;99.90
35258;DHT22;21385;50.878;8.050;2022-12-18T09:08:21;-1.60;99.90
35258;DHT22;21385;50.878;8.050;2022-12-18T09:10:48;-1.50;99.90
35258;DHT22;21385;50.878;8.050;2022-12-18T09:13:15;-1.40;99.90
35258;DHT22;21385;50.878;8.050;2022-12-18T09:15:46;-1.30;99.90
35258;DHT22;21385;50.878;8.050;2022-12-18T09:18:13;-1.20;99.90
35258;DHT22;21385;50.878;8.050;2022-12-18T09:20:39;-1.10;99.90
35258;DHT22;21385;50.878;8.050;2022-12-18T09:23:05;-1.00;99.90
35258;DHT22;21385;50.878;8.050;2022-12-18T09:28:07;0.30;99.90
35258;DHT22;21385;50.878;8.050;2022-12-18T09:30:37;0.30;99.90
35258;DHT22;21385;50.878;8.050;2022-12-18T09:33:03;0.30;99.90
35258;DHT22;21385;50.878;8.050;2022-12-18T09:35:29;0.30;99.90
35258;DHT22;21385;50.878;8.050;2022-12-18T09:37:54;0.20;99.90
35258;DHT22;21385;50.878;8.050;2022-12-18T09:40:24;0.20;99.90
35258;DHT22;21385;50.878;8.050;2022-12-18T09:42:59;0.10;99.90
35258;DHT22;21385;50.878;8.050;2022-12-18T09:45:25;0.10;99.90
35258;DHT22;21385;50.878;8.050;2022-12-18T09:47:52;0.10;99.90
35258;DHT22;21385;50.878;8.050;2022-12-18T09:50:28;-0.10;99.90
35258;DHT22;21385;50.878;8.050;2022-12-18T09:52:57;-0.10;99.90
35258;DHT22;21385;50.878;8.050;2022-12-18T09:55:44;0.00;99.90
35258;DHT22;21385;50.878;8.050;2022-12-18T09:58:34;0.00;99.90
35258;DHT22;21385;50.878;8.050;2022-12-18T10:01:01;0.00;99.90
35258;DHT22;21385;50.878;8.050;2022-12-18T10:03:27;0.10;99.90
35258;DHT22;21385;50.878;8.050;2022-12-18T10:08:49;0.30;99.90
35258;DHT22;21385;50.878;8.050;2022-12-18T10:14:03;0.50;99.90
35258;DHT22;21385;50.878;8.050;2022-12-18T10:27:25;0.80;99.90
35258;DHT22;21385;50.878;8.050;2022-12-18T10:29:52;0.80;99.90
35258;DHT22;21385;50.878;8.050;2022-12-18T10:32:23;0.80;99.90
35258;DHT22;21385;50.878;8.050;2022-12-18T10:34:52;0.80;99.90
35258;DHT22;21385;50.878;8.050;2022-12-18T10:37:21;0.80;99.90
35258;DHT22;21385;50.878;8.050;2022-12-18T10:42:34;0.70;99.90
35258;DHT22;21385;50.878;8.050;2022-12-18T10:45:15;0.70;99.90
35258;DHT22;21385;50.878;8.050;2022-12-18T10:47:49;0.70;99.90
35258;DHT22;21385;50.878;8.050;2022-12-18T10:50:33;0.70;99.90
35258;DHT22;21385;50.878;8.050;2022-12-18T10:53:00;0.60;99.90
35258;DHT22;21385;50.878;8.050;2022-12-18T10:55:35;0.60;99.90
35258;DHT22;21385;50.878;8.050;2022-12-18T10:58:25;0.70;99.90
35258;DHT22;21385;50.878;8.050;2022-12-18T11:01:04;0.80;99.90
35258;DHT22;21385;50.878;8.050;2022-12-18T11:04:15;0.90;99.90
35258;DHT22;21385;50.878;8.050;2022-12-18T11:06:32;0.90;99.90
35258;DHT22;21385;50.878;8.050;2022-12-18T11:09:02;1.00;99.90
35258;DHT22;21385;50.878;8.050;2022-12-18T11:11:28;1.00;99.90
35258;DHT22;21385;50.878;8.050;2022-12-18T11:14:22;1.10;99.90
35258;DHT22;21385;50.878;8.050;2022-12-18T11:16:49;1.20;99.90
35258;DHT22;21385;50.878;8.050;2022-12-18T11:19:35;1.30;99.90
35258;DHT22;21385;50.878;8.050;2022-12-18T11:22:16;1.30;99.90
35258;DHT22;21385;50.878;8.050;2022-12-18T11:24:43;1.40;99.90
35258;DHT22;21385;50.878;8.050;2022-12-18T11:27:16;1.40;99.90
35258;DHT22;21385;50.878;8.050;2022-12-18T11:29:43;1.40;99.90
35258;DHT22;21385;50.878;8.050;2022-12-18T11:34:47;1.50;99.90
35258;DHT22;21385;50.878;8.050;2022-12-18T11:37:15;1.50;99.90
35258;DHT22;21385;50.878;8.050;2022-12-18T11:39:54;1.60;99.90
35258;DHT22;21385;50.878;8.050;2022-12-18T11:45:53;1.60;99.90
35258;DHT22;21385;50.878;8.050;2022-12-18T11:48:24;1.50;99.90
35258;DHT22;21385;50.878;8.050;2022-12-18T11:50:56;1.40;99.90
35258;DHT22;21385;50.878;8.050;2022-12-18T11:53:25;1.30;99.90
35258;DHT22;21385;50.878;8.050;2022-12-18T12:04:36;1.40;99.90
35258;DHT22;21385;50.878;8.050;2022-12-18T12:13:11;1.30;99.90
35258;DHT22;21385;50.878;8.050;2022-12-18T12:18:53;1.10;99.90
35258;DHT22;21385;50.878;8.050;2022-12-18T12:21:40;1.00;99.90
35258;DHT22;21385;50.878;8.050;2022-12-18T12:24:48;1.00;99.90
35258;DHT22;21385;50.878;8.050;2022-12-18T12:27:44;1.00;99.90
35258;DHT22;21385;50.878;8.050;2022-12-18T12:36:56;1.00;99.90
35258;DHT22;21385;50.878;8.050;2022-12-18T12:39:13;0.80;99.90
35258;DHT22;21385;50.878;8.050;2022-12-18T12:41:41;0.70;99.90
35258;DHT22;21385;50.878;8.050;2022-12-18T12:44:29;0.60;99.90
35258;DHT22;21385;50.878;8.050;2022-12-18T12:46:59;0.60;99.90
35258;DHT22;21385;50.878;8.050;2022-12-18T12:49:28;0.50;99.90
35258;DHT22;21385;50.878;8.050;2022-12-18T12:52:16;0.30;99.90
35258;DHT22;21385;50.878;8.050;2022-12-18T12:54:43;0.20;99.90
35258;DHT22;21385;50.878;8.050;2022-12-18T12:57:15;0.10;99.90
35258;DHT22;21385;50.878;8.050;2022-12-18T12:59:57;0.10;99.90
35258;DHT22;21385;50.878;8.050;2022-12-18T13:02:50;-0.10;99.90
35258;DHT22;21385;50.878;8.050;2022-12-18T13:07:59;-0.50;99.90
35258;DHT22;21385;50.878;8.050;2022-12-18T13:10:31;-0.60;99.90
35258;DHT22;21385;50.878;8.050;2022-12-18T13:12:59;-0.70;99.90
35258;DHT22;21385;50.878;8.050;2022-12-18T13:15:46;-0.80;99.90
35258;DHT22;21385;50.878;8.050;2022-12-18T13:18:23;-0.80;99.90
35258;DHT22;21385;50.878;8.050;2022-12-18T13:30:54;-0.90;99.90
35258;DHT22;21385;50.878;8.050;2022-12-18T13:33:34;-1.00;99.90
35258;DHT22;21385;50.878;8.050;2022-12-18T13:38:45;-1.10;99.90
35258;DHT22;21385;50.878;8.050;2022-12-18T13:44:10;-1.20;99.90
35258;DHT22;21385;50.878;8.050;2022-12-18T13:46:44;-1.10;99.90
35258;DHT22;21385;50.878;8.050;2022-12-18T13:51:44;-1.20;99.90
35258;DHT22;21385;50.878;8.050;2022-12-18T13:56:45;-1.40;99.90
35258;DHT22;21385;50.878;8.050;2022-12-18T14:02:15;-1.40;99.90
35258;DHT22;21385;50.878;8.050;2022-12-18T14:04:44;-1.40;99.90
35258;DHT22;21385;50.878;8.050;2022-12-18T14:09:55;-1.50;99.90
35258;DHT22;21385;50.878;8.050;2022-12-18T14:12:27;-1.60;99.90
35258;DHT22;21385;50.878;8.050;2022-12-18T14:18:08;-1.50;99.90
35258;DHT22;21385;50.878;8.050;2022-12-18T14:20:35;-1.50;99.90
35258;DHT22;21385;50.878;8.050;2022-12-18T14:23:01;-1.60;99.90
35258;DHT22;21385;50.878;8.050;2022-12-18T14:25:30;-1.60;99.90
35258;DHT22;21385;50.878;8.050;2022-12-18T14:30:37;-1.80;99.90
35258;DHT22;21385;50.878;8.050;2022-12-18T14:33:17;-1.80;99.90
35258;DHT22;21385;50.878;8.050;2022-12-18T14:36:20;-1.80;99.90
35258;DHT22;21385;50.878;8.050;2022-12-18T14:38:51;-1.80;99.90
35258;DHT22;21385;50.878;8.050;2022-12-18T14:41:19;-1.80;99.90
35258;DHT22;21385;50.878;8.050;2022-12-18T14:43:47;-1.90;99.90
35258;DHT22;21385;50.878;8.050;2022-12-18T14:46:44;-1.90;99.90
35258;DHT22;21385;50.878;8.050;2022-12-18T14:51:59;-2.00;99.90
35258;DHT22;21385;50.878;8.050;2022-12-18T14:54:27;-2.00;99.90
35258;DHT22;21385;50.878;8.050;2022-12-18T15:00:05;-2.00;99.90
35258;DHT22;21385;50.878;8.050;2022-12-18T15:02:31;-1.90;99.90
35258;DHT22;21385;50.878;8.050;2022-12-18T15:05:14;-2.00;99.90
35258;DHT22;21385;50.878;8.050;2022-12-18T15:07:49;-2.00;99.90
35258;DHT22;21385;50.878;8.050;2022-12-18T15:10:22;-2.00;99.90
35258;DHT22;21385;50.878;8.050;2022-12-18T15:13:07;-2.10;99.90
35258;DHT22;21385;50.878;8.050;2022-12-18T15:18:05;-2.20;99.90
35258;DHT22;21385;50.878;8.050;2022-12-18T15:25:40;-2.30;99.90
35258;DHT22;21385;50.878;8.050;2022-12-18T15:29:02;-2.40;99.90
35258;DHT22;21385;50.878;8.050;2022-12-18T15:33:42;-2.40;99.90
35258;DHT22;21385;50.878;8.050;2022-12-18T15:36:11;-2.40;99.90
35258;DHT22;21385;50.878;8.050;2022-12-18T15:38:37;-2.60;99.90
35258;DHT22;21385;50.878;8.050;2022-12-18T15:41:03;-2.60;99.90
35258;DHT22;21385;50.878;8.050;2022-12-18T15:43:31;-2.70;99.90
35258;DHT22;21385;50.878;8.050;2022-12-18T15:48:42;-2.70;99.90
35258;DHT22;21385;50.878;8.050;2022-12-18T15:51:54;-2.70;99.90
35258;DHT22;21385;50.878;8.050;2022-12-18T15:54:03;-2.70;99.90
35258;DHT22;21385;50.878;8.050;2022-12-18T15:56:29;-2.80;99.90
35258;DHT22;21385;50.878;8.050;2022-12-18T15:59:19;-2.60;99.90
35258;DHT22;21385;50.878;8.050;2022-12-18T16:01:47;-2.60;99.90
35258;DHT22;21385;50.878;8.050;2022-12-18T16:04:15;-2.70;99.90
35258;DHT22;21385;50.878;8.050;2022-12-18T16:06:41;-2.80;99.90
35258;DHT22;21385;50.878;8.050;2022-12-18T16:09:07;-2.80;99.90
35258;DHT22;21385;50.878;8.050;2022-12-18T16:11:35;-2.90;99.90
35258;DHT22;21385;50.878;8.050;2022-12-18T16:14:06;-3.00;99.90
35258;DHT22;21385;50.878;8.050;2022-12-18T16:16:33;-3.00;99.90
35258;DHT22;21385;50.878;8.050;2022-12-18T16:18:59;-2.80;99.90
35258;DHT22;21385;50.878;8.050;2022-12-18T16:21:24;-2.40;99.90
35258;DHT22;21385;50.878;8.050;2022-12-18T16:23:50;-1.90;99.90
35258;DHT22;21385;50.878;8.050;2022-12-18T16:26:16;-2.00;99.90
35258;DHT22;21385;50.878;8.050;2022-12-18T16:28:41;-2.20;99.90
35258;DHT22;21385;50.878;8.050;2022-12-18T16:36:03;-2.60;99.90
35258;DHT22;21385;50.878;8.050;2022-12-18T16:38:28;-2.70;99.90
35258;DHT22;21385;50.878;8.050;2022-12-18T16:40:54;-2.80;99.90
35258;DHT22;21385;50.878;8.050;2022-12-18T16:43:42;-2.80;99.90
35258;DHT22;21385;50.878;8.050;2022-12-18T16:46:08;-2.90;99.90
35258;DHT22;21385;50.878;8.050;2022-12-18T16:48:33;-3.00;99.90
35258;DHT22;21385;50.878;8.050;2022-12-18T16:51:02;-3.00;99.90
35258;DHT22;21385;50.878;8.050;2022-12-18T16:53:27;-3.10;99.90
35258;DHT22;21385;50.878;8.050;2022-12-18T16:55:56;-3.10;99.90
35258;DHT22;21385;50.878;8.050;2022-12-18T16:58:22;-3.10;99.90
35258;DHT22;21385;50.878;8.050;2022-12-18T17:00:47;-3.10;99.90
35258;DHT22;21385;50.878;8.050;2022-12-18T17:03:13;-3.10;99.90
35258;DHT22;21385;50.878;8.050;2022-12-18T17:05:38;-3.10;99.90
35258;DHT22;21385;50.878;8.050;2022-12-18T17:08:04;-2.90;99.90
35258;DHT22;21385;50.878;8.050;2022-12-18T17:10:30;-2.80;99.90
35258;DHT22;21385;50.878;8.050;2022-12-18T17:12:55;-2.90;99.90
35258;DHT22;21385;50.878;8.050;2022-12-18T17:15:21;-2.90;99.90
35258;DHT22;21385;50.878;8.050;2022-12-18T17:17:46;-2.90;99.90
35258;DHT22;21385;50.878;8.050;2022-12-18T17:20:12;-2.90;99.90
35258;DHT22;21385;50.878;8.050;2022-12-18T17:22:37;-3.00;99.90
35258;DHT22;21385;50.878;8.050;2022-12-18T17:25:03;-3.00;99.90
35258;DHT22;21385;50.878;8.050;2022-12-18T17:27:29;-3.00;99.90
35258;DHT22;21385;50.878;8.050;2022-12-18T17:29:57;-3.10;99.90
35258;DHT22;21385;50.878;8.050;2022-12-18T17:33:42;-3.00;99.90
35258;DHT22;21385;50.878;8.050;2022-12-18T17:35:57;-3.10;99.90
35258;DHT22;21385;50.878;8.050;2022-12-18T17:38:23;-3.10;99.90
35258;DHT22;21385;50.878;8.050;2022-12-18T17:40:49;-3.10;99.90
35258;DHT22;21385;50.878;8.050;2022-12-18T17:43:14;-3.10;99.90
35258;DHT22;21385;50.878;8.050;2022-12-18T17:45:40;-3.10;99.90
35258;DHT22;21385;50.878;8.050;2022-12-18T17:48:07;-3.10;99.90
35258;DHT22;21385;50.878;8.050;2022-12-18T17:50:33;-3.10;99.90
35258;DHT22;21385;50.878;8.050;2022-12-18T17:52:59;-3.10;99.90
35258;DHT22;21385;50.878;8.050;2022-12-18T17:55:26;-3.00;99.90
35258;DHT22;21385;50.878;8.050;2022-12-18T17:57:52;-3.00;99.90
35258;DHT22;21385;50.878;8.050;2022-12-18T18:00:18;-3.00;99.90